createdAt,value
2022-11-19T00:01:36.347Z,16.55
2022-11-19T00:04:26.371Z,11.65
2022-11-19T00:06:54.901Z,14.82
2022-11-19T00:09:23.475Z,14.95
2022-11-19T00:12:12.112Z,11.82
2022-11-19T00:14:52.228Z,13.73
2022-11-19T00:17:42.063Z,10.20
2022-11-19T00:20:29.780Z,12.13
2022-11-19T00:23:11.354Z,12.85
2022-11-19T00:25:48.381Z,8.85
2022-11-19T00:28:34.523Z,11.98
2022-11-19T00:34:05.974Z,11.02
2022-11-19T00:36:37.871Z,13.48
2022-11-19T00:39:06.964Z,9.65
2022-11-19T00:41:38.178Z,8.88
2022-11-19T00:44:10.026Z,11.85
2022-11-19T00:46:41.503Z,8.30
2022-11-19T00:49:09.942Z,8.88
2022-11-19T00:51:38.993Z,8.88
2022-11-19T00:54:07.638Z,10.05
2022-11-19T00:56:38.389Z,9.43
2022-11-19T00:59:25.982Z,11.63
2022-11-19T01:02:13.483Z,10.27
2022-11-19T01:05:00.994Z,13.18
2022-11-19T01:07:48.600Z,9.25
2022-11-19T01:10:18.042Z,12.00
2022-11-19T01:13:14.374Z,11.10
2022-11-19T01:15:48.154Z,15.52
2022-11-19T01:18:21.929Z,12.32
2022-11-19T01:20:50.318Z,11.70
2022-11-19T01:23:19.196Z,9.35
2022-11-19T01:25:48.450Z,18.20
2022-11-19T01:28:19.296Z,13.57
2022-11-19T01:30:47.846Z,9.95
2022-11-19T01:33:27.870Z,16.58
2022-11-19T01:36:11.414Z,12.32
2022-11-19T01:38:51.084Z,12.15
2022-11-19T01:41:30.466Z,13.38
2022-11-19T01:44:04.372Z,16.67
2022-11-19T01:46:34.505Z,9.73
2022-11-19T01:49:08.255Z,31.45
2022-11-19T01:51:49.917Z,16.15
2022-11-19T01:54:30.825Z,20.45
2022-11-19T01:57:05.186Z,15.10
2022-11-19T01:59:36.015Z,18.45
2022-11-19T02:02:07.315Z,16.98
2022-11-19T02:04:40.950Z,14.85
2022-11-19T02:07:16.470Z,21.38
2022-11-19T02:09:52.017Z,18.75
2022-11-19T02:12:35.401Z,19.95
2022-11-19T02:15:23.197Z,19.88
2022-11-19T02:17:56.329Z,20.63
2022-11-19T02:20:24.283Z,22.95
2022-11-19T02:22:55.976Z,17.02
2022-11-19T02:25:41.697Z,21.00
2022-11-19T02:28:27.155Z,23.25
2022-11-19T02:30:57.800Z,23.77
2022-11-19T02:33:35.103Z,22.48
2022-11-19T02:36:14.327Z,23.50
2022-11-19T02:38:56.134Z,28.23
2022-11-19T02:41:36.347Z,21.90
2022-11-19T02:44:21.101Z,28.40
2022-11-19T02:46:52.957Z,33.22
2022-11-19T02:49:28.864Z,34.15
2022-11-19T02:52:00.080Z,24.70
2022-11-19T02:54:28.909Z,27.98
2022-11-19T02:57:02.960Z,29.67
2022-11-19T02:59:56.301Z,39.53
2022-11-19T03:02:43.376Z,37.90
2022-11-19T03:05:15.635Z,34.60
2022-11-19T03:07:44.180Z,35.55
2022-11-19T03:10:12.909Z,32.42
2022-11-19T03:12:49.484Z,30.60
2022-11-19T03:15:31.928Z,41.85
2022-11-19T03:18:13.954Z,42.63
2022-11-19T03:20:44.663Z,39.72
2022-11-19T03:23:22.965Z,42.42
2022-11-19T03:25:55.521Z,37.05
2022-11-19T03:28:26.598Z,39.15
2022-11-19T03:31:01.316Z,36.97
2022-11-19T03:33:45.558Z,43.23
2022-11-19T03:36:23.215Z,34.90
2022-11-19T03:39:02.990Z,39.17
2022-11-19T03:41:42.065Z,46.72
2022-11-19T03:44:16.489Z,43.80
2022-11-19T03:46:52.316Z,46.80
2022-11-19T03:49:22.029Z,51.80
2022-11-19T03:51:57.267Z,43.80
2022-11-19T03:54:30.334Z,47.38
2022-11-19T03:56:59.402Z,45.20
2022-11-19T03:59:32.396Z,46.03
2022-11-19T04:02:04.162Z,46.30
2022-11-19T04:04:37.252Z,45.70
2022-11-19T04:07:15.960Z,40.28
2022-11-19T04:09:55.331Z,41.00
2022-11-19T04:12:44.890Z,42.17
2022-11-19T04:15:24.792Z,41.42
2022-11-19T04:18:06.217Z,42.85
2022-11-19T04:20:51.546Z,46.78
2022-11-19T04:23:35.117Z,46.08
2022-11-19T04:26:11.420Z,39.08
2022-11-19T04:28:53.972Z,48.75
2022-11-19T04:31:26.995Z,47.92
2022-11-19T04:34:06.374Z,48.47
2022-11-19T04:36:49.071Z,45.70
2022-11-19T04:39:24.620Z,50.15
2022-11-19T04:42:07.929Z,35.97
2022-11-19T04:44:40.472Z,53.78
2022-11-19T04:47:16.659Z,46.97
2022-11-19T04:49:58.103Z,53.97
2022-11-19T04:52:48.061Z,53.05
2022-11-19T04:55:21.759Z,53.28
2022-11-19T04:57:53.012Z,49.08
2022-11-19T05:00:21.564Z,49.85
2022-11-19T05:03:09.203Z,53.17
2022-11-19T05:05:48.082Z,50.97
2022-11-19T05:08:31.294Z,52.53
2022-11-19T05:11:10.099Z,50.28
2022-11-19T05:13:40.890Z,45.55
2022-11-19T05:16:09.681Z,49.90
2022-11-19T05:18:41.020Z,45.38
2022-11-19T05:21:10.017Z,51.33
2022-11-19T05:23:38.598Z,51.72
2022-11-19T05:26:09.338Z,54.45
2022-11-19T05:28:48.368Z,51.33
2022-11-19T05:31:27.236Z,50.03
2022-11-19T05:33:58.178Z,58.20
2022-11-19T05:36:32.426Z,49.35
2022-11-19T05:39:11.476Z,53.90
2022-11-19T05:41:53.322Z,48.35
2022-11-19T05:44:32.993Z,47.75
2022-11-19T05:47:12.831Z,51.35
2022-11-19T05:49:55.818Z,49.27
2022-11-19T05:52:39.421Z,42.83
2022-11-19T05:55:17.851Z,46.63
2022-11-19T05:58:05.482Z,50.78
2022-11-19T06:00:55.467Z,49.92
2022-11-19T06:03:42.016Z,51.70
2022-11-19T06:06:14.667Z,49.00
2022-11-19T06:08:44.595Z,52.00
2022-11-19T06:11:33.770Z,45.47
2022-11-19T06:14:04.547Z,44.70
2022-11-19T06:16:33.027Z,50.55
2022-11-19T06:19:15.518Z,52.25
2022-11-19T06:21:53.241Z,52.35
2022-11-19T06:24:28.575Z,49.20
2022-11-19T06:27:00.584Z,49.88
2022-11-19T06:29:30.182Z,54.85
2022-11-19T06:32:13.532Z,50.38
2022-11-19T06:34:57.782Z,50.70
2022-11-19T06:37:33.861Z,52.53
2022-11-19T06:40:04.391Z,51.47
2022-11-19T06:42:37.937Z,48.00
2022-11-19T06:45:13.385Z,59.03
2022-11-19T06:47:50.049Z,51.75
2022-11-19T06:50:22.538Z,51.80
2022-11-19T06:53:09.192Z,53.85
2022-11-19T06:55:48.459Z,60.20
2022-11-19T06:58:23.798Z,58.33
2022-11-19T07:00:52.026Z,54.55
2022-11-19T07:03:30.569Z,53.38
2022-11-19T07:06:00.797Z,55.45
2022-11-19T07:08:37.803Z,58.17
2022-11-19T07:11:20.671Z,62.60
2022-11-19T07:14:01.157Z,66.85
2022-11-19T07:16:33.738Z,49.83
2022-11-19T07:19:05.597Z,57.72
2022-11-19T07:21:41.403Z,61.97
2022-11-19T07:24:20.596Z,51.92
2022-11-19T07:26:51.106Z,58.17
2022-11-19T07:29:28.070Z,53.17
2022-11-19T07:32:03.309Z,46.35
2022-11-19T07:34:38.760Z,59.83
2022-11-19T07:37:11.892Z,52.10
2022-11-19T07:39:52.194Z,54.55
2022-11-19T07:42:38.594Z,54.08
2022-11-19T07:45:10.811Z,55.17
2022-11-19T07:47:41.580Z,53.70
2022-11-19T07:50:11.677Z,53.75
2022-11-19T07:52:45.133Z,50.55
2022-11-19T07:55:23.378Z,48.45
2022-11-19T07:57:57.501Z,46.95
2022-11-19T08:00:38.711Z,50.60
2022-11-19T08:03:26.424Z,49.20
2022-11-19T08:05:57.043Z,51.75
2022-11-19T08:08:26.333Z,47.05
2022-11-19T08:10:56.869Z,43.22
2022-11-19T08:13:26.023Z,47.80
2022-11-19T08:15:59.909Z,49.45
2022-11-19T08:18:31.683Z,48.38
2022-11-19T08:21:09.110Z,52.08
2022-11-19T08:23:40.802Z,46.83
2022-11-19T08:26:09.430Z,44.55
2022-11-19T08:28:38.380Z,43.72
2022-11-19T08:31:10.335Z,48.60
2022-11-19T08:33:43.472Z,44.72
2022-11-19T08:36:12.345Z,43.88
2022-11-19T08:38:43.875Z,47.85
2022-11-19T08:41:32.898Z,42.83
2022-11-19T08:44:19.531Z,46.97
2022-11-19T08:47:08.222Z,44.80
2022-11-19T08:49:41.765Z,43.13
2022-11-19T08:52:31.624Z,45.00
2022-11-19T08:55:14.494Z,46.33
2022-11-19T08:58:06.028Z,41.58
2022-11-19T09:00:48.883Z,29.65
2022-11-19T09:03:36.551Z,40.55
2022-11-19T09:06:25.802Z,44.47
2022-11-19T09:08:54.316Z,42.60
2022-11-19T09:11:24.778Z,43.88
2022-11-19T09:13:53.208Z,42.90
2022-11-19T09:16:25.536Z,40.15
2022-11-19T09:18:53.977Z,38.30
2022-11-19T09:21:22.985Z,40.25
2022-11-19T09:23:51.536Z,45.88
2022-11-19T09:26:24.507Z,45.25
2022-11-19T09:28:52.894Z,50.90
2022-11-19T09:31:24.036Z,44.10
2022-11-19T09:33:54.907Z,43.22
2022-11-19T09:36:26.365Z,44.92
2022-11-19T09:39:07.299Z,44.80
2022-11-19T09:41:55.678Z,49.22
2022-11-19T09:44:25.800Z,45.45
2022-11-19T09:47:04.142Z,42.25
2022-11-19T09:49:39.820Z,43.97
2022-11-19T09:52:11.774Z,44.95
2022-11-19T09:54:47.490Z,39.17
2022-11-19T09:57:22.583Z,47.45
2022-11-19T09:59:53.029Z,38.72
2022-11-19T10:02:22.847Z,45.53
2022-11-19T10:04:53.653Z,45.88
2022-11-19T10:07:28.151Z,42.08
2022-11-19T10:09:59.341Z,47.97
2022-11-19T10:12:33.750Z,43.35
2022-11-19T10:15:36.060Z,47.08
2022-11-19T10:18:26.840Z,45.53
2022-11-19T10:20:59.817Z,40.90
2022-11-19T10:23:36.693Z,43.83
2022-11-19T10:26:06.287Z,42.03
2022-11-19T10:28:37.391Z,47.13
2022-11-19T10:31:18.207Z,44.83
2022-11-19T10:33:50.619Z,41.50
2022-11-19T10:36:23.725Z,43.20
2022-11-19T10:39:24.684Z,38.90
2022-11-19T10:42:00.175Z,40.88
2022-11-19T10:44:45.114Z,39.50
2022-11-19T10:47:16.383Z,38.63
2022-11-19T10:49:45.807Z,42.95
2022-11-19T10:52:23.638Z,44.13
2022-11-19T10:54:57.457Z,42.40
2022-11-19T11:29:33.024Z,38.13
2022-11-19T11:32:13.766Z,38.40
2022-11-19T11:34:44.155Z,34.30
2022-11-19T11:37:13.113Z,35.08
2022-11-19T11:39:44.235Z,38.75
2022-11-19T11:42:18.476Z,35.80
2022-11-19T11:45:01.413Z,38.58
2022-11-19T11:47:43.926Z,34.20
2022-11-19T11:50:22.986Z,36.53
2022-11-19T11:52:59.648Z,33.75
2022-11-19T11:55:29.607Z,30.50
2022-11-19T11:58:07.941Z,29.55
2022-11-19T12:00:47.668Z,31.08
2022-11-19T12:03:26.856Z,31.75
2022-11-19T12:06:50.634Z,33.50
2022-11-19T12:09:59.352Z,30.58
2022-11-19T12:12:39.677Z,33.28
2022-11-19T12:15:21.446Z,30.73
2022-11-19T12:17:59.121Z,29.50
2022-11-19T12:20:28.180Z,30.25
2022-11-19T12:23:02.775Z,30.83
2022-11-19T12:25:52.563Z,30.52
2022-11-19T12:28:46.097Z,26.45
2022-11-19T12:31:21.345Z,26.52
2022-11-19T12:34:09.017Z,27.30
2022-11-19T12:36:49.379Z,29.52
2022-11-19T12:39:18.629Z,25.35
2022-11-19T12:41:49.352Z,23.95
2022-11-19T12:44:34.221Z,26.88
2022-11-19T12:47:22.987Z,22.70
2022-11-19T12:49:57.741Z,24.33
2022-11-19T12:52:29.504Z,27.60
2022-11-19T12:55:14.160Z,26.38
2022-11-19T12:57:55.980Z,26.05
2022-11-19T13:00:28.528Z,25.80
2022-11-19T13:03:12.486Z,25.17
2022-11-19T13:08:15.051Z,26.58
2022-11-19T13:10:46.332Z,24.75
2022-11-19T13:13:17.388Z,23.20
2022-11-19T13:15:52.363Z,21.52
2022-11-19T13:18:22.144Z,24.13
2022-11-19T13:20:57.109Z,26.33
2022-11-19T13:23:28.892Z,23.52
2022-11-19T13:26:01.806Z,24.83
2022-11-19T13:28:47.767Z,24.00
2022-11-19T13:31:27.854Z,22.83
2022-11-19T13:34:07.047Z,24.70
2022-11-19T13:36:40.993Z,25.08
2022-11-19T13:39:15.651Z,22.60
2022-11-19T13:42:01.117Z,21.88
2022-11-19T13:44:42.162Z,23.00
2022-11-19T13:47:11.179Z,23.10
2022-11-19T13:49:42.695Z,22.77
2022-11-19T13:52:16.020Z,21.67
2022-11-19T13:54:45.171Z,24.23
2022-11-19T13:57:28.699Z,22.98
2022-11-19T14:00:01.175Z,20.58
2022-11-19T14:02:49.252Z,20.25
2022-11-19T14:05:31.729Z,24.80
2022-11-19T14:08:06.613Z,22.23
2022-11-19T14:10:43.552Z,22.23
2022-11-19T14:13:21.096Z,27.58
2022-11-19T14:16:09.554Z,26.58
2022-11-19T14:18:59.852Z,26.83
2022-11-19T14:21:45.471Z,24.77
2022-11-19T14:24:45.149Z,25.73
2022-11-19T14:27:13.100Z,21.83
2022-11-19T14:29:46.172Z,22.85
2022-11-19T14:32:14.141Z,22.67
2022-11-19T14:34:44.947Z,23.42
2022-11-19T14:37:13.651Z,23.95
2022-11-19T14:39:46.277Z,21.02
2022-11-19T14:42:19.595Z,21.67
2022-11-19T14:45:07.784Z,22.88
2022-11-19T14:47:43.318Z,22.42
2022-11-19T14:50:30.511Z,22.60
2022-11-19T14:53:02.541Z,21.38
2022-11-19T14:55:32.957Z,22.25
2022-11-19T14:58:03.466Z,25.02
2022-11-19T15:00:38.818Z,19.88
2022-11-19T15:03:23.438Z,19.70
2022-11-19T15:05:51.941Z,24.42
2022-11-19T15:08:20.244Z,24.20
2022-11-19T15:10:49.560Z,20.88
2022-11-19T15:13:29.220Z,21.42
2022-11-19T15:15:58.948Z,21.67
2022-11-19T15:18:27.217Z,18.27
2022-11-19T15:20:58.550Z,20.10
2022-11-19T15:23:36.598Z,22.80
2022-11-19T15:26:10.579Z,22.55
2022-11-19T15:29:02.739Z,22.73
2022-11-19T15:31:51.293Z,23.00
2022-11-19T15:34:21.862Z,22.80
2022-11-19T15:36:53.292Z,24.20
2022-11-19T15:39:30.398Z,24.25
2022-11-19T15:42:05.296Z,24.38
2022-11-19T15:44:46.153Z,24.30
2022-11-19T15:47:30.668Z,22.48
2022-11-19T15:50:00.316Z,25.83
2022-11-19T15:52:32.205Z,25.35
2022-11-19T15:55:14.436Z,26.20
2022-11-19T15:57:54.994Z,23.13
2022-11-19T16:00:26.446Z,23.27
2022-11-19T16:03:12.749Z,23.02
2022-11-19T16:05:46.326Z,21.50
2022-11-19T16:08:19.883Z,23.75
2022-11-19T16:11:09.592Z,26.50
2022-11-19T16:14:14.224Z,23.50
2022-11-19T16:17:17.571Z,25.42
2022-11-19T16:20:01.528Z,25.23
2022-11-19T16:22:41.436Z,25.60
2022-11-19T16:25:24.728Z,24.98
2022-11-19T16:27:55.742Z,26.30
2022-11-19T16:30:31.100Z,22.95
2022-11-19T16:33:22.165Z,20.60
2022-11-19T16:36:12.022Z,19.95
2022-11-19T16:38:54.064Z,24.00
2022-11-19T16:41:48.989Z,22.00
2022-11-19T16:44:34.322Z,20.40
2022-11-19T16:47:05.737Z,22.40
2022-11-19T16:49:34.515Z,20.15
2022-11-19T16:52:03.982Z,19.90
2022-11-19T16:54:48.121Z,23.48
2022-11-19T16:57:18.907Z,19.23
2022-11-19T16:59:53.623Z,22.95
2022-11-19T17:02:24.242Z,20.35
2022-11-19T17:04:54.134Z,16.40
2022-11-19T17:07:26.950Z,18.02
2022-11-19T17:10:26.860Z,17.33
2022-11-19T17:12:59.766Z,17.17
2022-11-19T17:15:44.617Z,21.92
2022-11-19T17:18:13.012Z,19.05
2022-11-19T17:20:56.485Z,20.55
2022-11-19T17:23:35.591Z,19.95
2022-11-19T17:26:06.644Z,20.65
2022-11-19T17:28:36.045Z,25.83
2022-11-19T17:31:07.355Z,16.73
2022-11-19T17:33:36.942Z,19.55
2022-11-19T17:36:13.334Z,20.08
2022-11-19T17:38:41.790Z,24.75
2022-11-19T17:41:13.474Z,20.15
2022-11-19T17:44:04.885Z,24.50
2022-11-19T17:46:33.327Z,20.60
2022-11-19T17:49:01.819Z,19.50
2022-11-19T17:51:32.893Z,21.23
2022-11-19T17:54:02.083Z,22.88
2022-11-19T17:56:32.898Z,27.52
2022-11-19T17:59:01.697Z,23.33
2022-11-19T18:01:43.665Z,27.30
2022-11-19T18:04:22.260Z,20.92
2022-11-19T18:07:03.542Z,25.35
2022-11-19T18:09:42.738Z,24.85
2022-11-19T18:12:24.803Z,22.77
2022-11-19T18:15:00.845Z,21.17
2022-11-19T18:17:47.363Z,20.17
2022-11-19T18:20:34.299Z,24.00
2022-11-19T18:23:22.007Z,21.35
2022-11-19T18:25:58.890Z,24.00
2022-11-19T18:28:35.175Z,22.45
2022-11-19T18:31:26.968Z,31.95
2022-11-19T18:33:56.925Z,21.23
2022-11-19T18:36:26.556Z,26.13
2022-11-19T18:38:56.061Z,26.42
2022-11-19T18:41:25.290Z,24.15
2022-11-19T18:44:11.911Z,23.35
2022-11-19T18:46:59.817Z,25.70
2022-11-19T18:49:42.658Z,25.65
2022-11-19T18:52:21.152Z,25.90
2022-11-19T18:55:04.311Z,23.73
2022-11-19T18:57:40.560Z,22.30
2022-11-19T19:00:17.278Z,26.48
2022-11-19T19:03:05.519Z,25.13
2022-11-19T19:05:46.774Z,22.58
2022-11-19T19:08:15.560Z,22.92
2022-11-19T19:10:43.894Z,29.15
2022-11-19T19:13:15.237Z,33.50
2022-11-19T19:15:43.611Z,22.95
2022-11-19T19:18:13.488Z,24.70
2022-11-19T19:20:43.802Z,22.08
2022-11-19T19:23:17.870Z,28.48
2022-11-19T19:25:58.639Z,25.92
2022-11-19T19:28:44.890Z,23.95
2022-11-19T19:31:18.092Z,26.03
2022-11-19T19:33:48.342Z,23.33
2022-11-19T19:36:17.796Z,23.73
2022-11-19T19:38:47.262Z,28.60
2022-11-19T19:41:30.746Z,26.63
2022-11-19T19:44:01.178Z,25.67
2022-11-19T19:46:42.510Z,24.30
2022-11-19T19:49:21.367Z,27.08
2022-11-19T19:52:08.803Z,26.67
2022-11-19T19:54:48.150Z,29.85
2022-11-19T19:57:29.614Z,23.52
2022-11-19T20:00:17.118Z,24.73
2022-11-19T20:03:06.199Z,24.23
2022-11-19T20:05:38.070Z,28.75
2022-11-19T20:08:06.615Z,32.53
2022-11-19T20:10:40.962Z,25.92
2022-11-19T20:13:32.032Z,30.08
2022-11-19T20:16:18.207Z,27.50
2022-11-19T20:19:00.296Z,30.38
2022-11-19T20:21:36.267Z,28.50
2022-11-19T20:24:12.653Z,31.02
2022-11-19T20:26:49.171Z,29.35
2022-11-19T20:29:30.014Z,29.67
2022-11-19T20:32:08.273Z,30.95
2022-11-19T20:34:44.956Z,30.80
2022-11-19T20:37:16.926Z,35.17
2022-11-19T20:39:51.613Z,27.38
2022-11-19T20:42:41.779Z,28.42
2022-11-19T20:45:10.393Z,29.15
2022-11-19T20:47:46.182Z,33.13
2022-11-19T20:50:14.354Z,30.00
2022-11-19T20:52:43.902Z,31.20
2022-11-19T20:55:12.686Z,26.58
2022-11-19T20:57:43.225Z,28.02
2022-11-19T21:00:12.413Z,30.60
2022-11-19T21:02:52.205Z,34.30
2022-11-19T21:07:51.459Z,32.22
2022-11-19T21:10:20.337Z,33.13
2022-11-19T21:13:02.284Z,30.15
2022-11-19T21:15:37.530Z,36.70
2022-11-19T21:18:22.141Z,31.80
2022-11-19T21:21:02.483Z,33.97
2022-11-19T21:23:48.010Z,31.75
2022-11-19T21:26:27.517Z,31.30
2022-11-19T21:28:59.792Z,33.85
2022-11-19T21:31:39.738Z,35.13
2022-11-19T21:34:12.301Z,27.25
2022-11-19T21:36:53.932Z,31.25
2022-11-19T21:39:39.058Z,35.58
2022-11-19T21:42:14.299Z,35.25
2022-11-19T21:44:46.551Z,31.67
2022-11-19T21:47:34.222Z,37.08
2022-11-19T21:50:04.085Z,44.55
2022-11-19T21:52:37.153Z,35.90
2022-11-19T21:55:10.351Z,58.72
2022-11-19T21:57:42.997Z,64.90
2022-11-19T22:00:12.956Z,69.60
2022-11-19T22:02:53.548Z,73.13
2022-11-19T22:05:23.021Z,75.20
2022-11-19T22:07:53.800Z,62.33
2022-11-19T22:10:22.832Z,46.00
2022-11-19T22:12:51.329Z,46.65
2022-11-19T22:15:22.479Z,33.85
2022-11-19T22:17:56.600Z,37.40
2022-11-19T22:20:26.198Z,38.47
2022-11-19T22:22:58.138Z,32.92
2022-11-19T22:25:26.540Z,43.58
2022-11-19T22:30:34.925Z,36.63
2022-11-19T22:33:17.782Z,39.35
2022-11-19T22:36:02.702Z,38.58
2022-11-19T22:38:52.983Z,40.92
2022-11-19T22:41:36.119Z,37.42
2022-11-19T22:44:17.268Z,35.67
2022-11-19T22:47:01.656Z,38.08
2022-11-19T22:49:35.196Z,42.70
2022-11-19T22:52:16.053Z,42.53
2022-11-19T22:54:44.719Z,34.92
2022-11-19T22:57:13.994Z,35.28
2022-11-19T22:59:46.802Z,39.80
2022-11-19T23:02:15.965Z,38.85
2022-11-19T23:04:44.393Z,40.30
2022-11-19T23:07:16.491Z,36.67
2022-11-19T23:09:45.133Z,36.42
2022-11-19T23:12:31.901Z,44.90
2022-11-19T23:15:13.012Z,42.67
2022-11-19T23:18:00.605Z,45.05
2022-11-19T23:20:42.602Z,42.00
2022-11-19T23:23:28.146Z,43.80
2022-11-19T23:25:57.730Z,40.10
2022-11-19T23:28:26.435Z,40.97
2022-11-19T23:30:54.957Z,43.67
2022-11-19T23:33:30.571Z,34.05
2022-11-19T23:36:15.003Z,28.20
2022-11-19T23:38:59.814Z,42.47
2022-11-19T23:41:46.714Z,35.72
2022-11-19T23:44:18.355Z,37.33
2022-11-19T23:47:06.772Z,43.42
2022-11-19T23:49:51.476Z,38.22
2022-11-19T23:52:30.980Z,40.25
2022-11-19T23:55:13.877Z,35.72
2022-11-19T23:57:44.110Z,40.95
